createdAt,value
2023-02-14T00:01:30.724Z,31.67
2023-02-14T00:04:01.710Z,31.27
2023-02-14T00:06:32.994Z,30.30
2023-02-14T00:11:28.976Z,29.95
2023-02-14T00:14:15.793Z,30.98
2023-02-14T00:16:44.969Z,31.08
2023-02-14T00:19:15.042Z,31.90
2023-02-14T00:21:43.659Z,31.65
2023-02-14T00:24:21.387Z,31.58
2023-02-14T00:26:50.358Z,29.13
2023-02-14T00:29:23.735Z,30.05
2023-02-14T00:31:51.703Z,31.10
2023-02-14T00:34:20.941Z,29.08
2023-02-14T00:36:49.692Z,31.55
2023-02-14T00:39:19.001Z,28.75
2023-02-14T00:41:47.060Z,30.23
2023-02-14T00:44:18.414Z,28.95
2023-02-14T00:46:46.642Z,30.63
2023-02-14T00:49:14.524Z,30.00
2023-02-14T00:51:42.503Z,31.30
2023-02-14T00:54:10.464Z,32.20
2023-02-14T00:56:38.384Z,31.92
2023-02-14T00:59:06.319Z,32.15
2023-02-14T01:01:34.340Z,30.60
2023-02-14T01:04:04.511Z,31.63
2023-02-14T01:06:32.620Z,31.25
2023-02-14T01:09:01.030Z,31.77
2023-02-14T01:11:30.315Z,37.10
2023-02-14T01:13:59.648Z,31.75
2023-02-14T01:16:29.018Z,32.67
2023-02-14T01:18:57.499Z,32.00
2023-02-14T01:21:30.588Z,32.63
2023-02-14T01:24:04.157Z,32.35
2023-02-14T01:26:32.846Z,33.13
2023-02-14T01:29:02.691Z,32.65
2023-02-14T01:31:33.019Z,30.50
2023-02-14T01:34:01.532Z,32.23
2023-02-14T01:36:32.806Z,32.47
2023-02-14T01:39:03.458Z,32.13
2023-02-14T01:41:34.560Z,32.33
2023-02-14T01:44:37.890Z,32.38
2023-02-14T01:47:13.035Z,31.95
2023-02-14T01:49:51.010Z,32.20
2023-02-14T01:52:33.810Z,30.30
2023-02-14T01:55:13.217Z,31.80
2023-02-14T01:58:07.692Z,32.00
2023-02-14T02:03:28.370Z,31.30
2023-02-14T02:06:06.294Z,31.83
2023-02-14T02:08:38.247Z,30.70
2023-02-14T02:11:06.305Z,31.10
2023-02-14T02:13:34.368Z,33.20
2023-02-14T02:16:14.883Z,32.03
2023-02-14T02:19:17.699Z,31.77
2023-02-14T02:22:04.131Z,30.27
2023-02-14T02:24:47.217Z,30.92
2023-02-14T02:27:27.316Z,30.42
2023-02-14T02:30:17.016Z,29.45
2023-02-14T02:32:51.424Z,30.33
2023-02-14T02:35:45.326Z,30.30
2023-02-14T02:38:31.866Z,29.05
2023-02-14T02:41:25.197Z,27.67
2023-02-14T02:44:03.682Z,28.20
2023-02-14T02:46:55.980Z,30.23
2023-02-14T02:50:11.016Z,28.75
2023-02-14T02:53:05.016Z,28.63
2023-02-14T02:55:57.534Z,30.02
2023-02-14T02:58:33.632Z,28.98
2023-02-14T03:01:06.608Z,30.30
2023-02-14T03:03:54.538Z,28.88
2023-02-14T03:06:22.742Z,30.80
2023-02-14T03:08:50.648Z,30.75
2023-02-14T03:11:19.455Z,29.92
2023-02-14T03:14:23.623Z,30.77
2023-02-14T03:17:09.278Z,30.95
2023-02-14T03:20:12.567Z,29.80
2023-02-14T03:22:55.722Z,30.80
2023-02-14T03:25:44.842Z,29.90
2023-02-14T03:28:27.164Z,29.63
2023-02-14T03:31:24.555Z,30.42
2023-02-14T03:34:24.472Z,31.55
2023-02-14T03:37:07.288Z,30.23
2023-02-14T03:39:56.963Z,32.97
2023-02-14T03:42:49.890Z,31.17
2023-02-14T03:45:31.463Z,31.65
2023-02-14T03:48:05.123Z,31.02
2023-02-14T03:50:35.747Z,31.98
2023-02-14T03:53:05.173Z,31.10
2023-02-14T03:55:45.727Z,30.67
2023-02-14T03:58:30.703Z,31.37
2023-02-14T04:01:10.074Z,33.40
2023-02-14T04:03:41.874Z,32.92
2023-02-14T04:06:10.557Z,32.42
2023-02-14T04:08:38.532Z,33.55
2023-02-14T04:11:07.371Z,32.67
2023-02-14T04:13:37.960Z,31.85
2023-02-14T04:16:06.924Z,33.10
2023-02-14T04:18:53.827Z,34.33
2023-02-14T04:21:22.451Z,32.80
2023-02-14T04:23:50.340Z,33.67
2023-02-14T04:26:18.298Z,33.45
2023-02-14T04:28:46.289Z,32.92
2023-02-14T04:31:14.440Z,34.78
2023-02-14T04:33:42.485Z,31.38
2023-02-14T04:36:10.504Z,34.00
2023-02-14T04:38:41.597Z,31.88
2023-02-14T04:41:12.255Z,32.63
2023-02-14T04:43:44.109Z,33.28
2023-02-14T04:46:12.004Z,35.88
2023-02-14T04:48:39.864Z,34.85
2023-02-14T04:51:07.904Z,34.00
2023-02-14T04:53:41.144Z,34.13
2023-02-14T04:56:09.306Z,33.80
2023-02-14T04:58:38.189Z,32.40
2023-02-14T05:01:06.228Z,34.22
2023-02-14T05:03:34.116Z,33.67
2023-02-14T05:06:02.054Z,32.17
2023-02-14T05:08:29.993Z,31.70
2023-02-14T05:10:58.243Z,31.45
2023-02-14T05:13:26.296Z,28.92
2023-02-14T05:15:54.335Z,29.90
2023-02-14T05:18:22.691Z,30.73
2023-02-14T05:20:51.864Z,29.52
2023-02-14T05:23:20.052Z,30.95
2023-02-14T05:25:51.872Z,30.27
2023-02-14T05:28:23.447Z,30.60
2023-02-14T05:30:53.021Z,30.27
2023-02-14T05:33:20.970Z,32.78
2023-02-14T05:35:49.123Z,32.70
2023-02-14T05:38:17.032Z,32.38
2023-02-14T05:40:45.684Z,31.08
2023-02-14T05:43:13.932Z,30.98
2023-02-14T05:45:41.857Z,30.58
2023-02-14T05:48:09.995Z,31.65
2023-02-14T05:50:38.100Z,29.65
2023-02-14T05:53:10.549Z,30.52
2023-02-14T05:55:38.591Z,29.77
2023-02-14T05:58:06.505Z,31.63
2023-02-14T06:00:35.490Z,29.27
2023-02-14T06:03:03.403Z,30.65
2023-02-14T06:05:31.414Z,29.48
2023-02-14T06:07:59.569Z,29.55
2023-02-14T06:10:27.694Z,33.08
2023-02-14T06:12:55.680Z,30.63
2023-02-14T06:15:24.145Z,30.45
2023-02-14T06:18:01.944Z,29.88
2023-02-14T06:20:30.344Z,29.80
2023-02-14T06:22:58.512Z,30.05
2023-02-14T06:25:27.195Z,30.77
2023-02-14T06:27:59.196Z,30.75
2023-02-14T06:30:27.584Z,31.30
2023-02-14T06:32:55.748Z,30.42
2023-02-14T06:35:23.777Z,30.23
2023-02-14T06:37:51.748Z,29.13
2023-02-14T06:40:20.735Z,30.95
2023-02-14T06:42:48.696Z,30.67
2023-02-14T06:45:16.746Z,30.98
2023-02-14T06:47:45.888Z,28.90
2023-02-14T06:50:13.861Z,30.58
2023-02-14T06:52:43.149Z,29.52
2023-02-14T06:55:13.254Z,29.65
2023-02-14T06:57:41.442Z,30.55
2023-02-14T07:00:11.212Z,31.25
2023-02-14T07:02:39.577Z,29.25
2023-02-14T07:05:07.522Z,29.42
2023-02-14T07:07:35.643Z,29.50
2023-02-14T07:10:03.662Z,32.78
2023-02-14T07:12:31.616Z,32.88
2023-02-14T07:14:59.572Z,29.85
2023-02-14T07:17:27.455Z,29.13
2023-02-14T07:19:58.093Z,30.33
2023-02-14T07:22:25.976Z,30.15
2023-02-14T07:24:53.950Z,28.65
2023-02-14T07:27:21.900Z,27.15
2023-02-14T07:29:49.801Z,29.17
2023-02-14T07:32:18.054Z,28.58
2023-02-14T07:34:46.106Z,27.65
2023-02-14T07:37:14.030Z,29.88
2023-02-14T07:39:41.939Z,29.45
2023-02-14T07:42:09.919Z,29.17
2023-02-14T07:44:40.227Z,28.63
2023-02-14T07:47:09.243Z,28.05
2023-02-14T07:49:37.720Z,26.33
2023-02-14T07:52:06.508Z,27.60
2023-02-14T07:54:34.534Z,28.27
2023-02-14T07:57:09.417Z,28.17
2023-02-14T07:59:41.302Z,28.25
2023-02-14T08:02:10.725Z,28.15
2023-02-14T08:04:38.724Z,27.98
2023-02-14T08:07:06.604Z,27.60
2023-02-14T08:09:34.509Z,27.13
2023-02-14T08:12:21.292Z,27.67
2023-02-14T08:14:49.174Z,28.60
2023-02-14T08:17:17.085Z,27.77
2023-02-14T08:19:44.951Z,26.35
2023-02-14T08:22:12.826Z,28.27
2023-02-14T08:24:40.792Z,27.25
2023-02-14T08:27:08.690Z,27.58
2023-02-14T08:29:36.685Z,27.02
2023-02-14T08:32:04.630Z,33.33
2023-02-14T08:34:32.587Z,29.17
2023-02-14T08:37:00.483Z,27.95
2023-02-14T08:39:28.389Z,28.63
2023-02-14T08:41:56.290Z,26.35
2023-02-14T08:44:24.783Z,26.95
2023-02-14T08:46:52.725Z,25.92
2023-02-14T08:49:20.678Z,26.55
2023-02-14T08:51:48.573Z,27.10
2023-02-14T08:54:16.606Z,28.55
2023-02-14T08:56:44.625Z,28.70
2023-02-14T08:59:12.514Z,26.67
2023-02-14T09:01:40.434Z,28.75
2023-02-14T09:04:08.456Z,27.75
2023-02-14T09:06:40.082Z,30.15
2023-02-14T09:09:08.737Z,28.08
2023-02-14T09:11:36.728Z,30.15
2023-02-14T09:14:04.768Z,26.88
2023-02-14T09:16:32.755Z,27.13
2023-02-14T09:19:00.849Z,26.08
2023-02-14T09:21:30.229Z,25.25
2023-02-14T09:23:58.502Z,25.15
2023-02-14T09:26:26.716Z,26.23
2023-02-14T09:28:54.661Z,27.10
2023-02-14T09:31:26.978Z,25.33
2023-02-14T09:33:57.401Z,26.88
2023-02-14T09:36:25.572Z,27.17
2023-02-14T09:38:56.584Z,26.05
2023-02-14T09:41:30.254Z,27.83
2023-02-14T09:44:14.271Z,29.27
2023-02-14T09:46:47.644Z,27.20
2023-02-14T09:49:19.165Z,25.38
2023-02-14T09:51:52.540Z,26.20
2023-02-14T09:54:28.565Z,25.85
2023-02-14T09:57:23.594Z,26.73
2023-02-14T10:00:21.617Z,27.88
2023-02-14T10:03:36.930Z,29.20
2023-02-14T10:06:36.371Z,27.02
2023-02-14T10:09:14.492Z,25.17
2023-02-14T10:11:46.679Z,26.50
2023-02-14T10:14:22.096Z,27.15
2023-02-14T10:17:10.953Z,28.25
2023-02-14T10:19:53.483Z,26.83
2023-02-14T10:22:28.128Z,28.58
2023-02-14T10:25:07.017Z,27.90
2023-02-14T10:27:49.259Z,29.63
2023-02-14T10:30:23.026Z,27.35
2023-02-14T10:33:03.878Z,25.98
2023-02-14T10:35:51.453Z,25.88
2023-02-14T10:38:45.745Z,27.83
2023-02-14T10:41:42.780Z,25.90
2023-02-14T10:44:14.630Z,25.33
2023-02-14T10:46:58.746Z,26.95
2023-02-14T10:50:00.489Z,31.02
2023-02-14T10:55:13.842Z,24.35
2023-02-14T10:57:47.707Z,26.25
2023-02-14T11:00:25.452Z,26.17
2023-02-14T11:02:58.266Z,25.85
2023-02-14T11:05:41.024Z,26.50
2023-02-14T11:08:19.781Z,26.23
2023-02-14T11:10:47.781Z,26.05
2023-02-14T11:13:33.587Z,27.00
2023-02-14T11:16:08.401Z,25.73
2023-02-14T11:18:38.537Z,26.10
2023-02-14T11:21:18.872Z,25.17
2023-02-14T11:23:49.442Z,23.40
2023-02-14T11:26:38.368Z,25.42
2023-02-14T11:29:15.883Z,23.10
2023-02-14T11:31:44.406Z,24.13
2023-02-14T11:34:34.039Z,24.27
2023-02-14T11:37:02.286Z,23.33
2023-02-14T11:39:36.673Z,21.92
2023-02-14T11:42:06.945Z,25.48
2023-02-14T11:44:37.916Z,24.77
2023-02-14T11:47:29.589Z,23.55
2023-02-14T11:50:07.144Z,21.55
2023-02-14T11:52:41.527Z,21.25
2023-02-14T11:55:29.526Z,21.80
2023-02-14T11:57:58.747Z,20.70
2023-02-14T12:00:27.960Z,21.63
2023-02-14T12:02:57.952Z,21.65
2023-02-14T12:05:46.352Z,21.88
2023-02-14T12:08:25.842Z,20.42
2023-02-14T12:11:19.412Z,21.10
2023-02-14T12:13:57.695Z,21.10
2023-02-14T12:16:39.774Z,20.95
2023-02-14T12:19:17.231Z,21.70
2023-02-14T12:21:52.660Z,20.98
2023-02-14T12:24:41.293Z,21.42
2023-02-14T12:27:25.681Z,20.42
2023-02-14T12:30:29.917Z,21.77
2023-02-14T12:32:58.349Z,21.33
2023-02-14T12:35:53.800Z,21.35
2023-02-14T12:38:56.859Z,20.45
2023-02-14T12:41:49.018Z,19.85
2023-02-14T12:44:32.240Z,21.00
2023-02-14T12:47:17.824Z,20.35
2023-02-14T12:50:07.541Z,21.17
2023-02-14T12:52:51.328Z,19.88
2023-02-14T12:55:46.169Z,21.08
2023-02-14T12:58:35.753Z,20.80
2023-02-14T13:01:38.391Z,20.15
2023-02-14T13:04:49.510Z,19.00
2023-02-14T13:07:40.621Z,18.17
2023-02-14T13:10:37.846Z,19.23
2023-02-14T13:13:28.516Z,19.67
2023-02-14T13:16:20.004Z,18.27
2023-02-14T13:19:07.083Z,18.48
2023-02-14T13:21:39.006Z,19.70
2023-02-14T13:24:26.627Z,19.00
2023-02-14T13:26:59.011Z,18.23
2023-02-14T13:29:33.407Z,19.02
2023-02-14T13:32:03.539Z,19.15
2023-02-14T13:34:36.259Z,19.35
2023-02-14T13:37:08.976Z,18.80
2023-02-14T13:39:45.312Z,19.15
2023-02-14T13:42:17.134Z,19.02
2023-02-14T13:44:53.757Z,17.77
2023-02-14T13:47:24.330Z,17.33
2023-02-14T13:50:04.014Z,18.03
2023-02-14T13:52:47.107Z,17.38
2023-02-14T13:55:29.430Z,17.98
2023-02-14T13:58:18.189Z,17.63
2023-02-14T14:00:48.056Z,19.02
2023-02-14T14:03:39.328Z,20.00
2023-02-14T14:06:09.602Z,18.02
2023-02-14T14:08:40.605Z,18.42
2023-02-14T14:11:22.420Z,18.38
2023-02-14T14:14:15.851Z,18.85
2023-02-14T14:17:02.036Z,17.50
2023-02-14T14:19:29.952Z,18.23
2023-02-14T14:22:09.509Z,16.17
2023-02-14T14:24:42.629Z,16.45
2023-02-14T14:27:22.931Z,16.92
2023-02-14T14:30:02.190Z,16.33
2023-02-14T14:32:33.436Z,17.10
2023-02-14T14:35:05.092Z,17.38
2023-02-14T14:37:35.423Z,16.42
2023-02-14T14:40:09.877Z,16.88
2023-02-14T14:42:43.974Z,16.70
2023-02-14T14:45:29.316Z,15.75
2023-02-14T14:48:00.358Z,16.33
2023-02-14T14:50:32.071Z,15.35
2023-02-14T14:53:10.740Z,16.90
2023-02-14T14:55:41.772Z,16.25
2023-02-14T14:58:37.614Z,15.77
2023-02-14T15:01:08.777Z,18.80
2023-02-14T15:03:36.755Z,15.60
2023-02-14T15:06:20.396Z,15.38
2023-02-14T15:08:49.680Z,15.48
2023-02-14T15:11:42.346Z,15.98
2023-02-14T15:14:23.903Z,15.13
2023-02-14T15:19:38.146Z,16.45
2023-02-14T15:22:20.956Z,16.05
2023-02-14T15:24:49.670Z,15.52
2023-02-14T15:27:21.267Z,16.60
2023-02-14T15:30:10.737Z,16.38
2023-02-14T15:32:39.644Z,16.63
2023-02-14T15:35:08.407Z,16.65
2023-02-14T15:37:36.719Z,17.55
2023-02-14T15:40:25.912Z,17.35
2023-02-14T15:42:57.761Z,17.75
2023-02-14T15:45:29.142Z,18.33
2023-02-14T15:50:33.682Z,16.30
2023-02-14T15:53:08.311Z,16.38
2023-02-14T15:55:38.000Z,18.02
2023-02-14T15:58:21.652Z,18.35
2023-02-14T16:00:51.246Z,18.73
2023-02-14T16:03:25.060Z,20.75
2023-02-14T16:05:53.065Z,22.48
2023-02-14T16:08:40.443Z,17.27
2023-02-14T16:11:17.079Z,18.15
2023-02-14T16:13:47.421Z,16.52
2023-02-14T16:16:16.668Z,17.52
2023-02-14T16:18:48.534Z,17.17
2023-02-14T16:21:20.129Z,19.20
2023-02-14T16:24:09.641Z,17.92
2023-02-14T16:26:45.400Z,19.55
2023-02-14T16:29:18.422Z,19.98
2023-02-14T16:34:41.451Z,19.65
2023-02-14T16:37:20.205Z,19.85
2023-02-14T16:39:49.112Z,18.25
2023-02-14T16:42:20.348Z,20.77
2023-02-14T16:44:48.581Z,23.48
2023-02-14T16:47:18.330Z,24.17
2023-02-14T16:49:46.393Z,24.70
2023-02-14T16:52:19.030Z,20.02
2023-02-14T16:54:47.007Z,18.38
2023-02-14T16:57:28.534Z,19.02
2023-02-14T16:59:59.744Z,18.92
2023-02-14T17:02:29.358Z,20.05
2023-02-14T17:04:57.896Z,19.52
2023-02-14T17:07:26.204Z,19.02
2023-02-14T17:09:59.513Z,21.42
2023-02-14T17:12:32.748Z,22.55
2023-02-14T17:15:07.100Z,20.50
2023-02-14T17:17:37.348Z,20.38
2023-02-14T17:20:07.359Z,17.98
2023-02-14T17:22:36.670Z,17.48
2023-02-14T17:25:06.575Z,19.58
2023-02-14T17:27:34.531Z,20.55
2023-02-14T17:30:02.439Z,21.80
2023-02-14T17:32:30.581Z,19.70
2023-02-14T17:34:58.810Z,19.63
2023-02-14T17:37:26.865Z,17.65
2023-02-14T17:39:54.924Z,17.98
2023-02-14T17:42:23.067Z,18.80
2023-02-14T17:44:50.933Z,18.73
2023-02-14T17:47:19.318Z,18.60
2023-02-14T17:49:50.311Z,19.38
2023-02-14T17:52:18.553Z,18.67
2023-02-14T17:54:46.468Z,17.77
2023-02-14T17:57:14.399Z,18.10
2023-02-14T17:59:43.610Z,17.52
2023-02-14T18:02:11.651Z,17.45
2023-02-14T18:04:39.696Z,18.80
2023-02-14T18:07:07.815Z,18.52
2023-02-14T18:09:35.727Z,17.90
2023-02-14T18:12:14.816Z,17.83
2023-02-14T18:14:43.436Z,17.25
2023-02-14T18:17:14.330Z,17.95
2023-02-14T18:19:42.492Z,18.45
2023-02-14T18:22:10.384Z,18.85
2023-02-14T18:24:38.352Z,18.50
2023-02-14T18:27:07.421Z,20.73
2023-02-14T18:29:36.830Z,19.33
2023-02-14T18:32:05.951Z,16.92
2023-02-14T18:34:36.739Z,17.30
2023-02-14T18:37:05.655Z,17.20
2023-02-14T18:39:33.961Z,17.70
2023-02-14T18:42:02.464Z,18.88
2023-02-14T18:44:30.415Z,20.73
2023-02-14T18:46:58.390Z,21.83
2023-02-14T18:49:26.419Z,19.50
2023-02-14T18:51:54.551Z,18.27
2023-02-14T18:54:22.449Z,20.02
2023-02-14T18:56:50.424Z,19.52
2023-02-14T18:59:18.546Z,18.92
2023-02-14T19:01:46.994Z,19.67
2023-02-14T19:04:15.093Z,19.13
2023-02-14T19:06:43.601Z,17.88
2023-02-14T19:09:13.995Z,19.17
2023-02-14T19:11:42.608Z,20.30
2023-02-14T19:14:11.446Z,20.52
2023-02-14T19:16:44.923Z,19.77
2023-02-14T19:19:12.956Z,21.17
2023-02-14T19:21:40.876Z,21.50
2023-02-14T19:24:10.152Z,21.50
2023-02-14T19:26:41.293Z,22.35
2023-02-14T19:29:17.949Z,23.17
2023-02-14T19:31:56.380Z,24.45
2023-02-14T19:34:31.631Z,24.55
2023-02-14T19:37:01.782Z,23.33
2023-02-14T19:39:31.211Z,27.05
2023-02-14T19:41:59.896Z,27.20
2023-02-14T19:44:30.335Z,25.65
2023-02-14T19:47:01.892Z,27.13
2023-02-14T19:49:32.991Z,25.48
2023-02-14T19:52:01.181Z,27.17
2023-02-14T19:54:30.870Z,26.98
2023-02-14T19:56:59.516Z,26.13
2023-02-14T19:59:29.037Z,26.10
2023-02-14T20:01:57.940Z,30.10
2023-02-14T20:04:29.101Z,27.98
2023-02-14T20:06:57.732Z,28.95
2023-02-14T20:09:26.688Z,29.67
2023-02-14T20:11:59.121Z,29.13
2023-02-14T20:14:29.487Z,28.85
2023-02-14T20:19:39.921Z,27.48
2023-02-14T20:22:09.280Z,29.38
2023-02-14T20:24:37.321Z,28.88
2023-02-14T20:27:05.357Z,32.97
2023-02-14T20:29:34.250Z,27.83
2023-02-14T20:32:04.661Z,27.90
2023-02-14T20:34:33.182Z,29.20
2023-02-14T20:37:01.413Z,27.60
2023-02-14T20:39:34.676Z,30.00
2023-02-14T20:42:03.055Z,28.05
2023-02-14T20:44:31.902Z,28.77
2023-02-14T20:46:59.828Z,27.45
2023-02-14T20:49:29.317Z,31.83
2023-02-14T20:51:58.010Z,32.20
2023-02-14T20:54:27.756Z,29.65
2023-02-14T20:56:56.141Z,28.65
2023-02-14T20:59:28.090Z,29.52
2023-02-14T21:01:58.172Z,30.10
2023-02-14T21:04:27.808Z,29.20
2023-02-14T21:07:01.196Z,26.55
2023-02-14T21:09:31.551Z,28.73
2023-02-14T21:12:00.451Z,27.77
2023-02-14T21:14:28.890Z,27.08
2023-02-14T21:17:00.407Z,28.83
2023-02-14T21:22:05.159Z,25.52
2023-02-14T21:24:33.104Z,26.05
2023-02-14T21:27:03.020Z,25.92
2023-02-14T21:29:31.221Z,27.45
2023-02-14T21:32:01.063Z,25.45
2023-02-14T21:34:30.414Z,25.60
2023-02-14T21:36:58.349Z,26.27
2023-02-14T21:39:32.154Z,25.63
2023-02-14T21:42:06.502Z,25.20
2023-02-14T21:44:53.933Z,25.92
2023-02-14T21:47:21.978Z,26.02
2023-02-14T21:50:13.119Z,25.88
2023-02-14T21:52:44.236Z,25.08
2023-02-14T21:57:53.240Z,24.65
2023-02-14T22:00:21.690Z,24.23
2023-02-14T22:02:49.881Z,23.83
2023-02-14T22:05:18.304Z,24.20
2023-02-14T22:07:46.337Z,24.58
2023-02-14T22:10:14.867Z,23.33
2023-02-14T22:12:42.838Z,24.27
2023-02-14T22:15:11.042Z,24.60
2023-02-14T22:17:39.736Z,23.65
2023-02-14T22:20:08.258Z,22.38
2023-02-14T22:22:39.205Z,20.02
2023-02-14T22:25:07.438Z,20.17
2023-02-14T22:27:40.105Z,19.85
2023-02-14T22:30:09.409Z,20.20
2023-02-14T22:32:37.330Z,21.50
2023-02-14T22:35:05.417Z,20.55
2023-02-14T22:37:33.487Z,21.08
2023-02-14T22:40:01.400Z,20.95
2023-02-14T22:42:29.275Z,21.25
2023-02-14T22:44:57.265Z,23.40
2023-02-14T22:47:25.322Z,21.30
2023-02-14T22:49:53.269Z,22.25
2023-02-14T22:52:24.152Z,20.35
2023-02-14T22:54:53.517Z,19.77
2023-02-14T22:57:21.461Z,21.05
2023-02-14T22:59:49.359Z,22.00
2023-02-14T23:02:17.260Z,19.55
2023-02-14T23:04:45.210Z,20.75
2023-02-14T23:07:13.122Z,22.55
2023-02-14T23:09:47.993Z,22.55
2023-02-14T23:12:35.981Z,23.98
2023-02-14T23:15:23.081Z,24.60
2023-02-14T23:18:10.021Z,24.17
2023-02-14T23:20:56.447Z,22.80
2023-02-14T23:23:24.335Z,23.23
2023-02-14T23:25:52.217Z,21.40
2023-02-14T23:28:20.143Z,21.60
2023-02-14T23:30:48.054Z,22.35
2023-02-14T23:33:16.209Z,21.35
2023-02-14T23:35:44.088Z,21.75
2023-02-14T23:38:12.075Z,21.90
2023-02-14T23:40:58.802Z,20.88
2023-02-14T23:43:26.816Z,21.15
2023-02-14T23:45:54.746Z,21.77
2023-02-14T23:48:22.721Z,20.17
2023-02-14T23:50:50.615Z,20.60
2023-02-14T23:53:18.824Z,19.98
2023-02-14T23:55:46.650Z,20.40
2023-02-14T23:58:14.582Z,20.17
